sensor_id;sensor_type;location;lat;lon;timestamp;temperature;humidity
42755;DHT22;28407;51.830;5.684;2023-05-07T00:01:45;17.20;78.70
42755;DHT22;28407;51.830;5.684;2023-05-07T00:03:45;17.10;78.70
42755;DHT22;28407;51.830;5.684;2023-05-07T00:05:46;17.10;78.70
42755;DHT22;28407;51.830;5.684;2023-05-07T00:07:47;17.10;78.70
42755;DHT22;28407;51.830;5.684;2023-05-07T00:09:47;17.10;78.70
42755;DHT22;28407;51.830;5.684;2023-05-07T00:11:48;17.00;78.70
42755;DHT22;28407;51.830;5.684;2023-05-07T00:13:49;17.10;78.70
42755;DHT22;28407;51.830;5.684;2023-05-07T00:15:49;17.00;78.70
42755;DHT22;28407;51.830;5.684;2023-05-07T00:17:50;17.00;78.70
42755;DHT22;28407;51.830;5.684;2023-05-07T00:19:50;17.00;78.70
42755;DHT22;28407;51.830;5.684;2023-05-07T00:21:51;16.90;78.70
42755;DHT22;28407;51.830;5.684;2023-05-07T00:23:54;16.90;78.70
42755;DHT22;28407;51.830;5.684;2023-05-07T00:25:55;16.90;78.80
42755;DHT22;28407;51.830;5.684;2023-05-07T00:27:56;16.90;78.80
42755;DHT22;28407;51.830;5.684;2023-05-07T00:29:57;16.90;79.10
42755;DHT22;28407;51.830;5.684;2023-05-07T00:31:58;16.90;78.80
42755;DHT22;28407;51.830;5.684;2023-05-07T00:33:59;16.80;78.80
42755;DHT22;28407;51.830;5.684;2023-05-07T00:35:59;16.80;78.80
42755;DHT22;28407;51.830;5.684;2023-05-07T00:38:02;16.80;78.80
42755;DHT22;28407;51.830;5.684;2023-05-07T00:40:03;16.80;78.80
42755;DHT22;28407;51.830;5.684;2023-05-07T00:42:07;16.80;78.80
42755;DHT22;28407;51.830;5.684;2023-05-07T00:44:08;16.70;78.80
42755;DHT22;28407;51.830;5.684;2023-05-07T00:46:09;16.70;78.80
42755;DHT22;28407;51.830;5.684;2023-05-07T00:48:11;16.70;78.80
42755;DHT22;28407;51.830;5.684;2023-05-07T00:50:12;16.70;78.80
42755;DHT22;28407;51.830;5.684;2023-05-07T00:52:15;16.70;78.80
42755;DHT22;28407;51.830;5.684;2023-05-07T00:54:16;16.70;78.90
42755;DHT22;28407;51.830;5.684;2023-05-07T00:56:17;16.70;78.90
42755;DHT22;28407;51.830;5.684;2023-05-07T00:58:18;16.60;78.80
42755;DHT22;28407;51.830;5.684;2023-05-07T01:00:20;16.60;78.90
42755;DHT22;28407;51.830;5.684;2023-05-07T01:02:21;16.60;78.90
42755;DHT22;28407;51.830;5.684;2023-05-07T01:04:22;16.60;78.90
42755;DHT22;28407;51.830;5.684;2023-05-07T01:06:23;16.60;78.90
42755;DHT22;28407;51.830;5.684;2023-05-07T01:08:26;16.60;79.00
42755;DHT22;28407;51.830;5.684;2023-05-07T01:10:28;16.60;79.00
42755;DHT22;28407;51.830;5.684;2023-05-07T01:12:31;16.60;79.00
42755;DHT22;28407;51.830;5.684;2023-05-07T01:14:31;16.60;79.00
42755;DHT22;28407;51.830;5.684;2023-05-07T01:16:33;16.60;79.00
42755;DHT22;28407;51.830;5.684;2023-05-07T01:18:34;16.60;79.00
42755;DHT22;28407;51.830;5.684;2023-05-07T01:20:35;16.60;79.00
42755;DHT22;28407;51.830;5.684;2023-05-07T01:22:37;16.60;79.00
42755;DHT22;28407;51.830;5.684;2023-05-07T01:24:38;16.60;79.00
42755;DHT22;28407;51.830;5.684;2023-05-07T01:26:41;16.60;79.00
42755;DHT22;28407;51.830;5.684;2023-05-07T01:28:42;16.50;79.00
42755;DHT22;28407;51.830;5.684;2023-05-07T01:30:49;16.60;79.00
42755;DHT22;28407;51.830;5.684;2023-05-07T01:33:08;16.50;79.00
42755;DHT22;28407;51.830;5.684;2023-05-07T01:35:12;16.50;79.10
42755;DHT22;28407;51.830;5.684;2023-05-07T01:37:14;16.50;79.00
42755;DHT22;28407;51.830;5.684;2023-05-07T01:39:15;16.50;79.00
42755;DHT22;28407;51.830;5.684;2023-05-07T01:41:16;16.50;79.10
42755;DHT22;28407;51.830;5.684;2023-05-07T01:43:17;16.60;79.20
42755;DHT22;28407;51.830;5.684;2023-05-07T01:45:18;16.60;79.20
42755;DHT22;28407;51.830;5.684;2023-05-07T01:47:19;16.50;79.80
42755;DHT22;28407;51.830;5.684;2023-05-07T01:49:21;16.60;79.20
42755;DHT22;28407;51.830;5.684;2023-05-07T01:51:21;16.60;79.20
42755;DHT22;28407;51.830;5.684;2023-05-07T01:53:22;16.60;79.20
42755;DHT22;28407;51.830;5.684;2023-05-07T01:55:23;16.50;79.30
42755;DHT22;28407;51.830;5.684;2023-05-07T01:57:24;16.50;79.20
42755;DHT22;28407;51.830;5.684;2023-05-07T01:59:25;16.60;79.30
42755;DHT22;28407;51.830;5.684;2023-05-07T02:01:25;16.60;79.40
42755;DHT22;28407;51.830;5.684;2023-05-07T02:03:26;16.50;79.30
42755;DHT22;28407;51.830;5.684;2023-05-07T02:05:35;16.60;79.40
42755;DHT22;28407;51.830;5.684;2023-05-07T02:07:42;16.50;79.40
42755;DHT22;28407;51.830;5.684;2023-05-07T02:09:42;16.60;79.50
42755;DHT22;28407;51.830;5.684;2023-05-07T02:11:43;16.60;79.50
42755;DHT22;28407;51.830;5.684;2023-05-07T02:13:44;16.60;79.50
42755;DHT22;28407;51.830;5.684;2023-05-07T02:15:45;16.50;79.50
42755;DHT22;28407;51.830;5.684;2023-05-07T02:18:04;16.50;79.50
42755;DHT22;28407;51.830;5.684;2023-05-07T02:20:07;16.50;79.50
42755;DHT22;28407;51.830;5.684;2023-05-07T02:22:13;16.60;79.60
42755;DHT22;28407;51.830;5.684;2023-05-07T02:24:14;16.60;79.60
42755;DHT22;28407;51.830;5.684;2023-05-07T02:26:15;16.50;79.50
42755;DHT22;28407;51.830;5.684;2023-05-07T02:28:15;16.50;79.50
42755;DHT22;28407;51.830;5.684;2023-05-07T02:30:37;16.50;79.50
42755;DHT22;28407;51.830;5.684;2023-05-07T02:32:38;16.50;79.50
42755;DHT22;28407;51.830;5.684;2023-05-07T02:34:38;16.50;79.60
42755;DHT22;28407;51.830;5.684;2023-05-07T02:36:39;16.50;79.60
42755;DHT22;28407;51.830;5.684;2023-05-07T02:38:44;16.50;79.60
42755;DHT22;28407;51.830;5.684;2023-05-07T02:40:45;16.50;79.70
42755;DHT22;28407;51.830;5.684;2023-05-07T02:42:46;16.50;79.70
42755;DHT22;28407;51.830;5.684;2023-05-07T02:44:47;16.50;79.70
42755;DHT22;28407;51.830;5.684;2023-05-07T02:46:48;16.50;79.80
42755;DHT22;28407;51.830;5.684;2023-05-07T02:48:48;16.50;79.80
42755;DHT22;28407;51.830;5.684;2023-05-07T02:50:49;16.50;79.80
42755;DHT22;28407;51.830;5.684;2023-05-07T02:52:49;16.50;79.80
42755;DHT22;28407;51.830;5.684;2023-05-07T02:54:50;16.50;79.80
42755;DHT22;28407;51.830;5.684;2023-05-07T02:56:51;16.50;79.80
42755;DHT22;28407;51.830;5.684;2023-05-07T02:58:51;16.40;79.80
42755;DHT22;28407;51.830;5.684;2023-05-07T03:00:54;16.50;79.90
42755;DHT22;28407;51.830;5.684;2023-05-07T03:03:21;16.40;79.80
42755;DHT22;28407;51.830;5.684;2023-05-07T03:05:22;16.40;79.80
42755;DHT22;28407;51.830;5.684;2023-05-07T03:07:22;16.40;79.80
42755;DHT22;28407;51.830;5.684;2023-05-07T03:09:23;16.40;79.90
42755;DHT22;28407;51.830;5.684;2023-05-07T03:11:24;16.40;79.90
42755;DHT22;28407;51.830;5.684;2023-05-07T03:13:24;16.40;79.90
42755;DHT22;28407;51.830;5.684;2023-05-07T03:15:26;16.40;80.00
42755;DHT22;28407;51.830;5.684;2023-05-07T03:17:27;16.40;80.00
42755;DHT22;28407;51.830;5.684;2023-05-07T03:19:27;16.30;80.00
42755;DHT22;28407;51.830;5.684;2023-05-07T03:21:28;16.40;80.00
42755;DHT22;28407;51.830;5.684;2023-05-07T03:23:29;16.40;80.00
42755;DHT22;28407;51.830;5.684;2023-05-07T03:25:29;16.40;80.70
42755;DHT22;28407;51.830;5.684;2023-05-07T03:27:31;16.30;80.00
42755;DHT22;28407;51.830;5.684;2023-05-07T03:29:32;16.40;80.10
42755;DHT22;28407;51.830;5.684;2023-05-07T03:31:32;16.30;80.10
42755;DHT22;28407;51.830;5.684;2023-05-07T03:33:35;16.30;80.10
42755;DHT22;28407;51.830;5.684;2023-05-07T03:35:35;16.40;80.20
42755;DHT22;28407;51.830;5.684;2023-05-07T03:37:37;16.40;80.10
42755;DHT22;28407;51.830;5.684;2023-05-07T03:39:38;16.40;80.10
42755;DHT22;28407;51.830;5.684;2023-05-07T03:41:39;16.40;80.20
42755;DHT22;28407;51.830;5.684;2023-05-07T03:43:39;16.40;80.20
42755;DHT22;28407;51.830;5.684;2023-05-07T03:45:43;16.40;80.20
42755;DHT22;28407;51.830;5.684;2023-05-07T03:47:49;16.40;80.30
42755;DHT22;28407;51.830;5.684;2023-05-07T03:49:52;16.40;80.30
42755;DHT22;28407;51.830;5.684;2023-05-07T03:51:55;16.40;80.30
42755;DHT22;28407;51.830;5.684;2023-05-07T03:53:56;16.40;80.40
42755;DHT22;28407;51.830;5.684;2023-05-07T03:55:58;16.40;80.40
42755;DHT22;28407;51.830;5.684;2023-05-07T03:57:59;16.40;80.40
42755;DHT22;28407;51.830;5.684;2023-05-07T04:00:02;16.30;81.10
42755;DHT22;28407;51.830;5.684;2023-05-07T04:02:09;16.30;80.60
42755;DHT22;28407;51.830;5.684;2023-05-07T04:04:10;16.30;80.60
42755;DHT22;28407;51.830;5.684;2023-05-07T04:06:11;16.30;80.60
42755;DHT22;28407;51.830;5.684;2023-05-07T04:08:14;16.30;80.60
42755;DHT22;28407;51.830;5.684;2023-05-07T04:10:20;16.30;80.60
42755;DHT22;28407;51.830;5.684;2023-05-07T04:12:23;16.30;80.70
42755;DHT22;28407;51.830;5.684;2023-05-07T04:14:23;16.30;80.70
42755;DHT22;28407;51.830;5.684;2023-05-07T04:16:24;16.30;80.70
42755;DHT22;28407;51.830;5.684;2023-05-07T04:18:24;16.40;81.30
42755;DHT22;28407;51.830;5.684;2023-05-07T04:20:25;16.40;80.70
42755;DHT22;28407;51.830;5.684;2023-05-07T04:22:33;16.40;80.70
42755;DHT22;28407;51.830;5.684;2023-05-07T04:24:33;16.40;80.70
42755;DHT22;28407;51.830;5.684;2023-05-07T04:26:35;16.40;80.70
42755;DHT22;28407;51.830;5.684;2023-05-07T04:28:36;16.40;80.70
42755;DHT22;28407;51.830;5.684;2023-05-07T04:30:37;16.40;80.70
42755;DHT22;28407;51.830;5.684;2023-05-07T04:32:40;16.40;80.70
42755;DHT22;28407;51.830;5.684;2023-05-07T04:34:40;16.40;80.70
42755;DHT22;28407;51.830;5.684;2023-05-07T04:36:42;16.40;80.70
42755;DHT22;28407;51.830;5.684;2023-05-07T04:38:45;16.40;80.80
42755;DHT22;28407;51.830;5.684;2023-05-07T04:40:46;16.40;80.80
42755;DHT22;28407;51.830;5.684;2023-05-07T04:42:51;16.40;80.70
42755;DHT22;28407;51.830;5.684;2023-05-07T04:44:53;16.40;80.80
42755;DHT22;28407;51.830;5.684;2023-05-07T04:46:55;16.40;80.70
42755;DHT22;28407;51.830;5.684;2023-05-07T04:48:55;16.40;81.30
42755;DHT22;28407;51.830;5.684;2023-05-07T04:50:56;16.40;80.80
42755;DHT22;28407;51.830;5.684;2023-05-07T04:52:57;16.40;80.90
42755;DHT22;28407;51.830;5.684;2023-05-07T04:55:01;16.40;80.90
42755;DHT22;28407;51.830;5.684;2023-05-07T04:57:07;16.40;81.00
42755;DHT22;28407;51.830;5.684;2023-05-07T04:59:08;16.40;81.00
42755;DHT22;28407;51.830;5.684;2023-05-07T05:01:09;16.40;81.00
42755;DHT22;28407;51.830;5.684;2023-05-07T05:03:09;16.40;81.00
42755;DHT22;28407;51.830;5.684;2023-05-07T05:05:12;16.40;81.10
42755;DHT22;28407;51.830;5.684;2023-05-07T05:07:13;16.40;81.10
42755;DHT22;28407;51.830;5.684;2023-05-07T05:09:14;16.40;81.20
42755;DHT22;28407;51.830;5.684;2023-05-07T05:11:16;16.40;81.20
42755;DHT22;28407;51.830;5.684;2023-05-07T05:13:17;16.40;81.20
42755;DHT22;28407;51.830;5.684;2023-05-07T05:15:18;16.50;81.30
42755;DHT22;28407;51.830;5.684;2023-05-07T05:17:18;16.50;81.20
42755;DHT22;28407;51.830;5.684;2023-05-07T05:19:19;16.50;81.20
42755;DHT22;28407;51.830;5.684;2023-05-07T05:21:20;16.50;81.20
42755;DHT22;28407;51.830;5.684;2023-05-07T05:23:23;16.50;81.20
42755;DHT22;28407;51.830;5.684;2023-05-07T05:25:24;16.50;81.30
42755;DHT22;28407;51.830;5.684;2023-05-07T05:27:25;16.50;81.30
42755;DHT22;28407;51.830;5.684;2023-05-07T05:29:26;16.50;81.30
42755;DHT22;28407;51.830;5.684;2023-05-07T05:31:27;16.50;81.30
42755;DHT22;28407;51.830;5.684;2023-05-07T05:33:27;16.50;81.30
42755;DHT22;28407;51.830;5.684;2023-05-07T05:35:29;16.50;81.40
42755;DHT22;28407;51.830;5.684;2023-05-07T05:37:31;16.50;81.50
42755;DHT22;28407;51.830;5.684;2023-05-07T05:39:33;16.50;81.50
42755;DHT22;28407;51.830;5.684;2023-05-07T05:41:34;16.50;81.50
42755;DHT22;28407;51.830;5.684;2023-05-07T05:43:35;16.50;81.60
42755;DHT22;28407;51.830;5.684;2023-05-07T05:45:35;16.50;81.60
42755;DHT22;28407;51.830;5.684;2023-05-07T05:47:37;16.50;81.70
42755;DHT22;28407;51.830;5.684;2023-05-07T05:49:38;16.50;81.80
42755;DHT22;28407;51.830;5.684;2023-05-07T05:51:40;16.50;81.90
42755;DHT22;28407;51.830;5.684;2023-05-07T05:53:41;16.50;81.90
42755;DHT22;28407;51.830;5.684;2023-05-07T05:55:42;16.50;81.90
42755;DHT22;28407;51.830;5.684;2023-05-07T05:57:44;16.50;82.10
42755;DHT22;28407;51.830;5.684;2023-05-07T05:59:44;16.50;82.00
42755;DHT22;28407;51.830;5.684;2023-05-07T06:01:47;16.50;81.90
42755;DHT22;28407;51.830;5.684;2023-05-07T06:03:48;16.50;82.10
42755;DHT22;28407;51.830;5.684;2023-05-07T06:05:49;16.40;82.10
42755;DHT22;28407;51.830;5.684;2023-05-07T06:07:51;16.50;82.10
42755;DHT22;28407;51.830;5.684;2023-05-07T06:09:53;16.50;82.10
42755;DHT22;28407;51.830;5.684;2023-05-07T06:11:54;16.50;82.10
42755;DHT22;28407;51.830;5.684;2023-05-07T06:13:54;16.50;82.10
42755;DHT22;28407;51.830;5.684;2023-05-07T06:15:55;16.50;82.10
42755;DHT22;28407;51.830;5.684;2023-05-07T06:17:56;16.60;82.10
42755;DHT22;28407;51.830;5.684;2023-05-07T06:19:57;16.60;82.10
42755;DHT22;28407;51.830;5.684;2023-05-07T06:21:58;16.60;82.10
42755;DHT22;28407;51.830;5.684;2023-05-07T06:24:00;16.60;82.00
42755;DHT22;28407;51.830;5.684;2023-05-07T06:26:01;16.60;82.00
42755;DHT22;28407;51.830;5.684;2023-05-07T06:28:07;16.70;82.00
42755;DHT22;28407;51.830;5.684;2023-05-07T06:30:10;16.70;82.00
42755;DHT22;28407;51.830;5.684;2023-05-07T06:32:13;16.70;81.90
42755;DHT22;28407;51.830;5.684;2023-05-07T06:34:16;16.70;81.90
42755;DHT22;28407;51.830;5.684;2023-05-07T06:36:17;16.70;81.90
42755;DHT22;28407;51.830;5.684;2023-05-07T06:38:18;16.80;81.90
42755;DHT22;28407;51.830;5.684;2023-05-07T06:40:20;16.80;81.90
42755;DHT22;28407;51.830;5.684;2023-05-07T06:42:21;16.80;81.90
42755;DHT22;28407;51.830;5.684;2023-05-07T06:44:23;16.80;81.90
42755;DHT22;28407;51.830;5.684;2023-05-07T06:46:33;16.80;81.80
42755;DHT22;28407;51.830;5.684;2023-05-07T06:48:34;16.80;81.80
42755;DHT22;28407;51.830;5.684;2023-05-07T06:50:39;16.80;81.80
42755;DHT22;28407;51.830;5.684;2023-05-07T06:52:39;16.80;81.80
42755;DHT22;28407;51.830;5.684;2023-05-07T06:54:40;16.90;81.90
42755;DHT22;28407;51.830;5.684;2023-05-07T06:56:42;16.80;81.80
42755;DHT22;28407;51.830;5.684;2023-05-07T06:58:43;16.80;81.80
42755;DHT22;28407;51.830;5.684;2023-05-07T07:00:45;16.90;81.90
42755;DHT22;28407;51.830;5.684;2023-05-07T07:02:46;16.90;81.90
42755;DHT22;28407;51.830;5.684;2023-05-07T07:04:49;16.90;81.90
42755;DHT22;28407;51.830;5.684;2023-05-07T07:06:52;17.00;81.90
42755;DHT22;28407;51.830;5.684;2023-05-07T07:08:52;17.00;81.90
42755;DHT22;28407;51.830;5.684;2023-05-07T07:10:53;17.00;81.90
42755;DHT22;28407;51.830;5.684;2023-05-07T07:12:54;17.00;81.90
42755;DHT22;28407;51.830;5.684;2023-05-07T07:14:55;17.00;81.90
42755;DHT22;28407;51.830;5.684;2023-05-07T07:16:57;17.00;81.90
42755;DHT22;28407;51.830;5.684;2023-05-07T07:18:58;17.00;81.90
42755;DHT22;28407;51.830;5.684;2023-05-07T07:20:59;17.00;82.00
42755;DHT22;28407;51.830;5.684;2023-05-07T07:23:00;17.00;82.00
42755;DHT22;28407;51.830;5.684;2023-05-07T07:25:01;17.10;82.10
42755;DHT22;28407;51.830;5.684;2023-05-07T07:27:01;17.10;82.10
42755;DHT22;28407;51.830;5.684;2023-05-07T07:29:02;17.10;82.10
42755;DHT22;28407;51.830;5.684;2023-05-07T07:31:03;17.20;82.10
42755;DHT22;28407;51.830;5.684;2023-05-07T07:33:05;17.20;82.10
42755;DHT22;28407;51.830;5.684;2023-05-07T07:35:09;17.20;82.10
42755;DHT22;28407;51.830;5.684;2023-05-07T07:37:11;17.20;82.10
42755;DHT22;28407;51.830;5.684;2023-05-07T07:39:12;17.20;82.00
42755;DHT22;28407;51.830;5.684;2023-05-07T07:41:13;17.20;82.00
42755;DHT22;28407;51.830;5.684;2023-05-07T07:43:14;17.30;82.00
42755;DHT22;28407;51.830;5.684;2023-05-07T07:45:14;17.20;81.90
42755;DHT22;28407;51.830;5.684;2023-05-07T07:47:19;17.30;81.90
42755;DHT22;28407;51.830;5.684;2023-05-07T07:49:21;17.30;81.90
42755;DHT22;28407;51.830;5.684;2023-05-07T07:51:22;17.30;82.00
42755;DHT22;28407;51.830;5.684;2023-05-07T07:53:23;17.30;82.00
42755;DHT22;28407;51.830;5.684;2023-05-07T07:55:24;17.20;81.90
42755;DHT22;28407;51.830;5.684;2023-05-07T07:57:27;17.30;82.00
42755;DHT22;28407;51.830;5.684;2023-05-07T07:59:27;17.30;82.00
42755;DHT22;28407;51.830;5.684;2023-05-07T08:01:30;17.20;82.00
42755;DHT22;28407;51.830;5.684;2023-05-07T08:03:31;17.30;82.10
42755;DHT22;28407;51.830;5.684;2023-05-07T08:05:33;17.30;82.10
42755;DHT22;28407;51.830;5.684;2023-05-07T08:07:34;17.30;82.00
42755;DHT22;28407;51.830;5.684;2023-05-07T08:09:38;17.30;82.00
42755;DHT22;28407;51.830;5.684;2023-05-07T08:11:39;17.30;82.00
42755;DHT22;28407;51.830;5.684;2023-05-07T08:13:40;17.40;82.10
42755;DHT22;28407;51.830;5.684;2023-05-07T08:15:40;17.40;82.10
42755;DHT22;28407;51.830;5.684;2023-05-07T08:17:42;17.40;82.00
42755;DHT22;28407;51.830;5.684;2023-05-07T08:19:42;17.40;82.00
42755;DHT22;28407;51.830;5.684;2023-05-07T08:21:46;17.50;82.00
42755;DHT22;28407;51.830;5.684;2023-05-07T08:23:48;17.50;81.90
42755;DHT22;28407;51.830;5.684;2023-05-07T08:25:49;17.50;82.00
42755;DHT22;28407;51.830;5.684;2023-05-07T08:27:51;17.50;81.90
42755;DHT22;28407;51.830;5.684;2023-05-07T08:29:52;17.50;81.90
42755;DHT22;28407;51.830;5.684;2023-05-07T08:31:54;17.50;81.90
42755;DHT22;28407;51.830;5.684;2023-05-07T08:33:56;17.50;81.90
42755;DHT22;28407;51.830;5.684;2023-05-07T08:35:57;17.50;81.90
42755;DHT22;28407;51.830;5.684;2023-05-07T08:37:59;17.60;81.90
42755;DHT22;28407;51.830;5.684;2023-05-07T08:39:59;17.60;81.80
42755;DHT22;28407;51.830;5.684;2023-05-07T08:42:05;17.70;81.90
42755;DHT22;28407;51.830;5.684;2023-05-07T08:44:12;17.70;81.70
42755;DHT22;28407;51.830;5.684;2023-05-07T08:46:18;17.70;81.70
42755;DHT22;28407;51.830;5.684;2023-05-07T08:48:22;17.80;81.60
42755;DHT22;28407;51.830;5.684;2023-05-07T08:50:31;17.80;81.60
42755;DHT22;28407;51.830;5.684;2023-05-07T08:52:33;17.90;81.50
42755;DHT22;28407;51.830;5.684;2023-05-07T08:54:37;17.90;81.50
42755;DHT22;28407;51.830;5.684;2023-05-07T08:56:38;17.90;81.40
42755;DHT22;28407;51.830;5.684;2023-05-07T08:58:40;18.00;81.40
42755;DHT22;28407;51.830;5.684;2023-05-07T09:00:41;18.00;81.30
42755;DHT22;28407;51.830;5.684;2023-05-07T09:02:42;18.00;81.30
42755;DHT22;28407;51.830;5.684;2023-05-07T09:04:44;18.00;81.20
42755;DHT22;28407;51.830;5.684;2023-05-07T09:06:45;18.10;81.20
42755;DHT22;28407;51.830;5.684;2023-05-07T09:08:52;18.20;81.20
42755;DHT22;28407;51.830;5.684;2023-05-07T09:10:54;18.20;81.10
42755;DHT22;28407;51.830;5.684;2023-05-07T09:12:56;18.30;81.00
42755;DHT22;28407;51.830;5.684;2023-05-07T09:14:59;18.30;80.80
42755;DHT22;28407;51.830;5.684;2023-05-07T09:17:00;18.40;80.80
42755;DHT22;28407;51.830;5.684;2023-05-07T09:19:01;18.40;80.70
42755;DHT22;28407;51.830;5.684;2023-05-07T09:21:02;18.40;80.60
42755;DHT22;28407;51.830;5.684;2023-05-07T09:23:03;18.50;80.60
42755;DHT22;28407;51.830;5.684;2023-05-07T09:25:06;18.50;80.50
42755;DHT22;28407;51.830;5.684;2023-05-07T09:27:07;18.60;81.20
42755;DHT22;28407;51.830;5.684;2023-05-07T09:29:10;18.60;80.40
42755;DHT22;28407;51.830;5.684;2023-05-07T09:31:11;18.70;80.30
42755;DHT22;28407;51.830;5.684;2023-05-07T09:33:12;18.70;80.20
42755;DHT22;28407;51.830;5.684;2023-05-07T09:35:17;18.70;80.10
42755;DHT22;28407;51.830;5.684;2023-05-07T09:37:19;18.70;80.00
42755;DHT22;28407;51.830;5.684;2023-05-07T09:39:20;18.80;79.90
42755;DHT22;28407;51.830;5.684;2023-05-07T09:41:21;18.90;79.80
42755;DHT22;28407;51.830;5.684;2023-05-07T09:43:34;18.90;79.70
42755;DHT22;28407;51.830;5.684;2023-05-07T09:45:36;19.00;79.60
42755;DHT22;28407;51.830;5.684;2023-05-07T09:47:39;19.10;79.50
42755;DHT22;28407;51.830;5.684;2023-05-07T09:49:47;19.10;79.30
42755;DHT22;28407;51.830;5.684;2023-05-07T09:51:51;19.20;79.30
42755;DHT22;28407;51.830;5.684;2023-05-07T09:53:54;19.30;79.20
42755;DHT22;28407;51.830;5.684;2023-05-07T09:55:58;19.30;79.10
42755;DHT22;28407;51.830;5.684;2023-05-07T09:57:59;19.40;79.10
42755;DHT22;28407;51.830;5.684;2023-05-07T10:00:03;19.40;78.90
42755;DHT22;28407;51.830;5.684;2023-05-07T10:02:21;19.50;78.90
42755;DHT22;28407;51.830;5.684;2023-05-07T10:04:27;19.50;78.80
42755;DHT22;28407;51.830;5.684;2023-05-07T10:06:28;19.60;78.80
42755;DHT22;28407;51.830;5.684;2023-05-07T10:08:30;19.60;78.70
42755;DHT22;28407;51.830;5.684;2023-05-07T10:10:33;19.60;78.60
42755;DHT22;28407;51.830;5.684;2023-05-07T10:12:35;19.70;78.60
42755;DHT22;28407;51.830;5.684;2023-05-07T10:14:41;19.70;78.40
42755;DHT22;28407;51.830;5.684;2023-05-07T10:16:43;19.80;78.30
42755;DHT22;28407;51.830;5.684;2023-05-07T10:18:48;19.90;78.20
42755;DHT22;28407;51.830;5.684;2023-05-07T10:20:54;19.90;78.00
42755;DHT22;28407;51.830;5.684;2023-05-07T10:22:58;20.00;77.90
42755;DHT22;28407;51.830;5.684;2023-05-07T10:25:14;20.10;77.70
42755;DHT22;28407;51.830;5.684;2023-05-07T10:27:17;20.20;77.40
42755;DHT22;28407;51.830;5.684;2023-05-07T10:34:06;20.50;76.80
42755;DHT22;28407;51.830;5.684;2023-05-07T10:36:08;20.60;77.30
42755;DHT22;28407;51.830;5.684;2023-05-07T10:38:09;20.60;76.30
42755;DHT22;28407;51.830;5.684;2023-05-07T10:40:13;20.70;76.10
42755;DHT22;28407;51.830;5.684;2023-05-07T10:42:15;20.70;76.00
42755;DHT22;28407;51.830;5.684;2023-05-07T10:44:28;20.70;75.80
42755;DHT22;28407;51.830;5.684;2023-05-07T10:46:30;20.80;75.70
42755;DHT22;28407;51.830;5.684;2023-05-07T10:51:21;20.80;75.60
42755;DHT22;28407;51.830;5.684;2023-05-07T10:53:25;20.90;75.50
42755;DHT22;28407;51.830;5.684;2023-05-07T10:55:46;20.90;75.50
42755;DHT22;28407;51.830;5.684;2023-05-07T10:57:52;20.90;75.40
42755;DHT22;28407;51.830;5.684;2023-05-07T10:59:59;20.90;75.30
42755;DHT22;28407;51.830;5.684;2023-05-07T11:02:04;20.90;75.10
42755;DHT22;28407;51.830;5.684;2023-05-07T11:04:26;20.90;75.10
42755;DHT22;28407;51.830;5.684;2023-05-07T11:06:36;20.90;75.00
42755;DHT22;28407;51.830;5.684;2023-05-07T11:08:56;21.00;75.00
42755;DHT22;28407;51.830;5.684;2023-05-07T11:11:03;21.00;74.80
42755;DHT22;28407;51.830;5.684;2023-05-07T11:13:19;20.90;74.80
42755;DHT22;28407;51.830;5.684;2023-05-07T11:15:43;20.90;74.80
42755;DHT22;28407;51.830;5.684;2023-05-07T11:18:05;20.90;74.90
42755;DHT22;28407;51.830;5.684;2023-05-07T11:20:10;20.90;75.00
42755;DHT22;28407;51.830;5.684;2023-05-07T11:24:42;20.90;75.10
42755;DHT22;28407;51.830;5.684;2023-05-07T11:26:47;20.90;75.10
42755;DHT22;28407;51.830;5.684;2023-05-07T11:28:48;20.90;75.10
42755;DHT22;28407;51.830;5.684;2023-05-07T11:30:50;20.90;75.10
42755;DHT22;28407;51.830;5.684;2023-05-07T11:32:53;20.90;75.20
42755;DHT22;28407;51.830;5.684;2023-05-07T11:34:55;20.90;75.30
42755;DHT22;28407;51.830;5.684;2023-05-07T11:36:58;20.80;75.50
42755;DHT22;28407;51.830;5.684;2023-05-07T11:39:31;20.80;75.50
42755;DHT22;28407;51.830;5.684;2023-05-07T11:41:36;20.80;75.60
42755;DHT22;28407;51.830;5.684;2023-05-07T11:43:37;20.70;75.70
42755;DHT22;28407;51.830;5.684;2023-05-07T11:45:40;20.70;75.90
42755;DHT22;28407;51.830;5.684;2023-05-07T11:47:41;20.70;76.10
42755;DHT22;28407;51.830;5.684;2023-05-07T11:49:47;20.70;76.10
42755;DHT22;28407;51.830;5.684;2023-05-07T11:51:48;20.60;76.10
42755;DHT22;28407;51.830;5.684;2023-05-07T11:53:50;20.60;76.20
42755;DHT22;28407;51.830;5.684;2023-05-07T11:55:56;20.60;76.30
42755;DHT22;28407;51.830;5.684;2023-05-07T11:57:57;20.50;76.30
42755;DHT22;28407;51.830;5.684;2023-05-07T11:59:59;20.50;76.50
42755;DHT22;28407;51.830;5.684;2023-05-07T12:02:02;20.50;76.70
42755;DHT22;28407;51.830;5.684;2023-05-07T12:04:03;20.50;76.70
42755;DHT22;28407;51.830;5.684;2023-05-07T12:06:06;20.50;76.70
42755;DHT22;28407;51.830;5.684;2023-05-07T12:08:07;20.50;76.70
42755;DHT22;28407;51.830;5.684;2023-05-07T12:10:08;20.50;76.70
42755;DHT22;28407;51.830;5.684;2023-05-07T12:12:09;20.50;76.70
42755;DHT22;28407;51.830;5.684;2023-05-07T12:14:09;20.50;76.80
42755;DHT22;28407;51.830;5.684;2023-05-07T12:16:11;20.50;76.90
42755;DHT22;28407;51.830;5.684;2023-05-07T12:18:12;20.50;77.10
42755;DHT22;28407;51.830;5.684;2023-05-07T12:20:13;20.50;77.10
42755;DHT22;28407;51.830;5.684;2023-05-07T12:22:15;20.50;77.10
42755;DHT22;28407;51.830;5.684;2023-05-07T12:24:15;20.50;77.10
42755;DHT22;28407;51.830;5.684;2023-05-07T12:26:16;20.60;77.20
42755;DHT22;28407;51.830;5.684;2023-05-07T12:28:18;20.60;77.10
42755;DHT22;28407;51.830;5.684;2023-05-07T12:30:19;20.60;77.10
42755;DHT22;28407;51.830;5.684;2023-05-07T12:32:21;20.60;77.10
42755;DHT22;28407;51.830;5.684;2023-05-07T12:34:22;20.60;77.00
42755;DHT22;28407;51.830;5.684;2023-05-07T12:36:23;20.50;77.00
42755;DHT22;28407;51.830;5.684;2023-05-07T12:38:23;20.60;77.20
42755;DHT22;28407;51.830;5.684;2023-05-07T12:40:24;20.60;77.30
42755;DHT22;28407;51.830;5.684;2023-05-07T12:42:25;20.60;77.20
42755;DHT22;28407;51.830;5.684;2023-05-07T12:44:32;20.60;77.10
42755;DHT22;28407;51.830;5.684;2023-05-07T12:46:38;20.60;77.10
42755;DHT22;28407;51.830;5.684;2023-05-07T12:48:43;20.60;77.20
42755;DHT22;28407;51.830;5.684;2023-05-07T12:50:52;20.60;77.40
42755;DHT22;28407;51.830;5.684;2023-05-07T12:52:53;20.60;77.50
42755;DHT22;28407;51.830;5.684;2023-05-07T12:54:54;20.60;77.60
42755;DHT22;28407;51.830;5.684;2023-05-07T12:57:21;20.60;77.60
42755;DHT22;28407;51.830;5.684;2023-05-07T12:59:38;20.60;77.80
42755;DHT22;28407;51.830;5.684;2023-05-07T13:01:39;20.60;77.90
42755;DHT22;28407;51.830;5.684;2023-05-07T13:03:39;20.70;77.80
42755;DHT22;28407;51.830;5.684;2023-05-07T13:05:40;20.60;77.70